Time;durP1;ratioP1;P1;durP2;ratioP2;P2;SDS_P1;SDS_P2;PMS_P1;PMS_P2;Temp;Humidity;BMP_temperature;BMP_pressure;BME280_temperature;BME280_humidity;BME280_pressure;Samples;Min_cycle;Max_cycle;Signal;HPM_P1;HPM_P2
2023/07/18 00:00:18;;;;;;;8.80;1.10;;;;;;;20.24;51.68;100502.80;109970;1274;22203;-77
2023/07/18 00:03:10;;;;;;;4.60;1.00;;;;;;;20.19;51.63;100497.50;109967;1274;22176;-77
2023/07/18 00:05:41;;;;;;;6.10;1.30;;;;;;;20.14;51.71;100493.38;109952;1280;22161;-77
2023/07/18 00:08:13;;;;;;;11.10;1.30;;;;;;;20.10;51.74;100496.14;109927;1280;23954;-76
2023/07/18 00:10:43;;;;;;;7.70;1.30;;;;;;;20.07;51.86;100498.55;108351;1277;22702;-76
2023/07/18 00:13:14;;;;;;;5.60;1.10;;;;;;;20.06;51.87;100499.55;107281;1277;23997;-76
2023/07/18 00:15:46;;;;;;;5.20;1.10;;;;;;;20.05;51.90;100498.98;107187;1274;22553;-76
2023/07/18 00:18:19;;;;;;;6.50;1.10;;;;;;;20.04;51.94;100511.93;107131;1276;22523;-76
2023/07/18 00:20:50;;;;;;;6.80;0.90;;;;;;;20.03;51.90;100522.21;107220;1280;25432;-76
2023/07/18 00:23:20;;;;;;;6.10;1.30;;;;;;;20.01;52.01;100519.86;107173;1273;22565;-76
2023/07/18 00:25:51;;;;;;;6.60;1.80;;;;;;;20.00;52.08;100521.58;107205;1280;22566;-76
2023/07/18 00:28:23;;;;;;;5.00;1.10;;;;;;;19.99;52.14;100514.48;107197;1270;24143;-76
2023/07/18 00:30:54;;;;;;;7.30;1.20;;;;;;;19.97;52.22;100517.20;107160;1278;22520;-76
2023/07/18 00:33:25;;;;;;;6.30;1.20;;;;;;;19.95;52.29;100515.17;107198;1280;22521;-76
2023/07/18 00:35:56;;;;;;;10.70;1.30;;;;;;;19.94;52.40;100513.17;107213;1274;24250;-76
2023/07/18 00:38:26;;;;;;;11.00;1.30;;;;;;;19.93;52.48;100523.40;107214;1277;22540;-76
2023/07/18 00:40:59;;;;;;;4.70;1.10;;;;;;;19.89;52.74;100512.27;107206;1280;22616;-76
2023/07/18 00:43:33;;;;;;;6.70;1.00;;;;;;;19.87;52.83;100517.66;107238;1270;22529;-76
2023/07/18 00:46:06;;;;;;;6.90;1.30;;;;;;;19.84;52.99;100535.06;107163;1275;23031;-75
2023/07/18 00:48:37;;;;;;;5.30;0.90;;;;;;;19.80;53.15;100543.09;110009;1274;22234;-78
2023/07/18 00:51:08;;;;;;;6.40;1.20;;;;;;;19.77;53.44;100550.02;107986;1277;24196;-77
2023/07/18 00:53:40;;;;;;;8.60;1.20;;;;;;;19.72;53.83;100551.81;107124;1273;22486;-78
2023/07/18 00:56:11;;;;;;;6.30;1.10;;;;;;;19.67;54.01;100556.92;107144;1274;22523;-78
2023/07/18 00:58:42;;;;;;;5.90;1.20;;;;;;;19.61;54.30;100565.86;107228;1277;24313;-77
2023/07/18 01:01:13;;;;;;;7.10;1.00;;;;;;;19.54;54.68;100570.50;107194;1273;22514;-78
2023/07/18 01:03:44;;;;;;;14.30;1.40;;;;;;;19.45;54.91;100573.58;107183;1277;23170;-78
2023/07/18 01:06:15;;;;;;;9.40;1.10;;;;;;;19.37;55.20;100589.47;107210;1277;22601;-78
2023/07/18 01:08:46;;;;;;;6.40;1.00;;;;;;;19.27;55.54;100597.27;107235;1277;22518;-77
2023/07/18 01:11:18;;;;;;;7.40;1.60;;;;;;;19.19;55.89;100601.02;107259;1274;22532;-78
2023/07/18 01:13:49;;;;;;;8.80;1.20;;;;;;;19.14;56.08;100590.73;107233;1270;23993;-76
2023/07/18 01:16:19;;;;;;;8.90;1.30;;;;;;;19.08;56.44;100590.88;107260;1277;25540;-76
2023/07/18 01:18:50;;;;;;;4.80;0.80;;;;;;;19.01;56.64;100583.55;107243;1277;25642;-76
2023/07/18 01:21:21;;;;;;;4.70;0.90;;;;;;;18.94;57.07;100582.89;107273;1273;23395;-76
2023/07/18 01:23:53;;;;;;;7.30;1.50;;;;;;;18.87;57.27;100582.14;107254;1277;22542;-76
2023/07/18 01:26:24;;;;;;;8.00;1.10;;;;;;;18.77;57.90;100582.13;107104;1272;22527;-76
2023/07/18 01:28:55;;;;;;;6.50;1.10;;;;;;;18.68;58.19;100583.85;107270;1280;23796;-76
2023/07/18 01:31:48;;;;;;;8.10;1.40;;;;;;;18.56;58.27;100582.61;107281;1280;24995;-76
2023/07/18 01:34:18;;;;;;;7.60;1.20;;;;;;;18.46;58.54;100583.26;109935;1278;22180;-76
2023/07/18 01:36:49;;;;;;;4.80;1.00;;;;;;;18.35;58.92;100583.61;109946;1277;22200;-77
2023/07/18 01:39:20;;;;;;;9.30;1.20;;;;;;;18.26;59.18;100592.69;109928;1277;22153;-76
2023/07/18 01:41:50;;;;;;;5.40;1.20;;;;;;;18.17;59.44;100592.48;109959;1280;22182;-77
2023/07/18 01:44:21;;;;;;;8.00;1.10;;;;;;;18.10;59.77;100594.83;109945;1273;22879;-76
2023/07/18 01:46:52;;;;;;;5.70;1.10;;;;;;;18.03;59.97;100597.70;109973;1280;23575;-76
2023/07/18 01:49:23;;;;;;;6.00;1.30;;;;;;;17.97;60.13;100600.45;109951;1277;22169;-76
2023/07/18 01:51:53;;;;;;;5.30;0.90;;;;;;;17.93;60.31;100604.68;109947;1277;22240;-76
2023/07/18 01:54:24;;;;;;;5.50;1.00;;;;;;;17.90;60.40;100609.69;109942;1278;22883;-76
2023/07/18 01:56:55;;;;;;;6.20;1.10;;;;;;;17.87;60.55;100611.98;109983;1273;22293;-76
2023/07/18 01:59:26;;;;;;;6.50;1.00;;;;;;;17.83;60.64;100608.43;109928;1275;22232;-76
2023/07/18 02:01:56;;;;;;;5.50;0.80;;;;;;;17.81;60.74;100607.98;109951;1277;22178;-76
2023/07/18 02:04:27;;;;;;;4.80;1.10;;;;;;;17.79;61.01;100606.80;109937;1280;22173;-76
2023/07/18 02:06:58;;;;;;;8.70;1.10;;;;;;;17.72;61.23;100606.12;109936;1277;22330;-78
2023/07/18 02:09:29;;;;;;;7.80;1.10;;;;;;;17.63;61.39;100610.41;109972;1280;22175;-76
2023/07/18 02:11:59;;;;;;;5.70;1.10;;;;;;;17.51;61.56;100616.09;109927;1277;22165;-76
2023/07/18 02:14:30;;;;;;;5.30;1.10;;;;;;;17.41;61.94;100622.32;109959;1272;22251;-76
2023/07/18 02:17:01;;;;;;;5.70;1.10;;;;;;;17.29;62.25;100623.83;109971;1280;22193;-76
2023/07/18 02:19:31;;;;;;;4.00;1.00;;;;;;;17.14;62.51;100627.45;109952;1280;22145;-76
2023/07/18 02:22:02;;;;;;;5.20;1.10;;;;;;;17.01;62.97;100631.92;109985;1280;22131;-77
2023/07/18 02:24:33;;;;;;;4.50;1.20;;;;;;;16.90;63.10;100637.42;109943;1280;22267;-77
2023/07/18 02:27:04;;;;;;;4.30;0.90;;;;;;;16.83;63.47;100647.84;109992;1280;22173;-77
2023/07/18 02:29:35;;;;;;;5.50;1.00;;;;;;;16.76;64.04;100652.24;109929;1280;22192;-76
2023/07/18 02:32:07;;;;;;;8.30;1.60;;;;;;;16.71;64.10;100650.28;109938;1274;23457;-77
2023/07/18 02:34:38;;;;;;;7.00;1.10;;;;;;;16.68;64.18;100652.65;109972;1280;22959;-77
2023/07/18 02:37:09;;;;;;;6.90;1.10;;;;;;;16.64;64.62;100656.55;109935;1277;22374;-77
2023/07/18 02:39:42;;;;;;;7.90;1.20;;;;;;;16.60;64.73;100662.64;109937;1273;22167;-77
2023/07/18 02:42:13;;;;;;;6.40;1.00;;;;;;;16.53;64.91;100665.33;110048;1280;23196;-76
2023/07/18 02:44:44;;;;;;;8.20;1.10;;;;;;;16.48;64.94;100668.19;109950;1276;22215;-76
2023/07/18 02:47:14;;;;;;;8.80;1.40;;;;;;;16.45;65.14;100670.11;109940;1273;22382;-76
2023/07/18 02:49:45;;;;;;;4.80;0.80;;;;;;;16.44;65.39;100675.09;109968;1280;22200;-76
2023/07/18 02:52:16;;;;;;;4.50;1.20;;;;;;;16.43;65.38;100668.46;110017;1277;22180;-76
2023/07/18 02:54:47;;;;;;;6.20;1.20;;;;;;;16.45;65.47;100676.52;109947;1276;22204;-76
2023/07/18 02:57:18;;;;;;;6.50;1.30;;;;;;;16.46;65.65;100676.92;109974;1276;22218;-77
2023/07/18 02:59:48;;;;;;;7.40;1.00;;;;;;;16.45;65.70;100680.27;109935;1279;22265;-77
2023/07/18 03:02:20;;;;;;;4.60;1.00;;;;;;;16.43;65.91;100678.36;109980;1275;22313;-76
2023/07/18 03:04:51;;;;;;;6.50;1.00;;;;;;;16.42;66.12;100677.99;109953;1280;23122;-76
2023/07/18 03:07:22;;;;;;;7.60;1.20;;;;;;;16.42;66.17;100676.77;109965;1280;22194;-76
2023/07/18 03:09:52;;;;;;;6.00;1.10;;;;;;;16.42;66.21;100680.31;109982;1277;22967;-77
2023/07/18 03:12:23;;;;;;;5.80;1.10;;;;;;;16.44;66.46;100677.85;110004;1277;22217;-76
2023/07/18 03:14:54;;;;;;;6.80;1.10;;;;;;;16.43;66.65;100678.01;109953;1277;22806;-76
2023/07/18 03:17:24;;;;;;;11.10;1.10;;;;;;;16.41;66.76;100678.40;109940;1272;22236;-76
2023/07/18 03:19:55;;;;;;;6.70;1.20;;;;;;;16.40;66.95;100678.20;109969;1276;22136;-76
2023/07/18 03:22:26;;;;;;;7.90;1.10;;;;;;;16.35;66.99;100681.51;109950;1277;22140;-76
2023/07/18 03:25:04;;;;;;;6.60;1.20;;;;;;;16.28;67.49;100680.17;109957;1273;22275;-77
2023/07/18 03:27:35;;;;;;;5.70;0.70;;;;;;;16.21;67.71;100685.58;109946;1277;23035;-76
2023/07/18 03:30:10;;;;;;;12.80;1.30;;;;;;;16.18;67.98;100688.27;110003;1280;22229;-76
2023/07/18 03:32:41;;;;;;;6.80;1.00;;;;;;;16.16;68.07;100689.19;109940;1277;22228;-76
2023/07/18 03:35:14;;;;;;;7.60;1.20;;;;;;;16.16;68.38;100687.39;109945;1275;22328;-76
2023/07/18 03:37:44;;;;;;;8.90;1.50;;;;;;;16.16;68.61;100689.75;109965;1277;22320;-76
2023/07/18 03:40:16;;;;;;;5.30;1.10;;;;;;;16.16;68.63;100692.88;109983;1277;22913;-76
2023/07/18 03:42:48;;;;;;;6.40;1.30;;;;;;;16.18;68.81;100691.75;110017;1277;22493;-76
2023/07/18 03:45:18;;;;;;;6.80;1.50;;;;;;;16.20;68.95;100695.46;109933;1273;22239;-76
2023/07/18 03:47:49;;;;;;;7.10;1.20;;;;;;;16.21;69.17;100696.74;109968;1273;22199;-76
2023/07/18 03:50:20;;;;;;;7.80;1.00;;;;;;;16.23;69.15;100700.43;109941;1275;22346;-77
2023/07/18 03:52:51;;;;;;;5.90;1.20;;;;;;;16.23;69.38;100699.82;109984;1280;22169;-75
2023/07/18 03:55:22;;;;;;;8.70;1.00;;;;;;;16.25;69.50;100702.29;109927;1272;23033;-76
2023/07/18 03:57:52;;;;;;;6.00;1.00;;;;;;;16.28;69.42;100706.90;109967;1274;22202;-76
2023/07/18 04:00:23;;;;;;;5.00;1.20;;;;;;;16.30;69.65;100709.42;109937;1270;22401;-76
2023/07/18 04:02:54;;;;;;;8.10;1.20;;;;;;;16.33;69.63;100714.40;109935;1274;23004;-76
2023/07/18 04:05:25;;;;;;;7.60;1.00;;;;;;;16.38;69.59;100711.86;109920;1275;22174;-76
2023/07/18 04:07:56;;;;;;;9.80;1.20;;;;;;;16.41;69.68;100720.30;109953;1277;22379;-76
2023/07/18 04:10:26;;;;;;;7.50;1.20;;;;;;;16.44;69.86;100724.83;109932;1280;22219;-76
2023/07/18 04:12:57;;;;;;;7.60;1.40;;;;;;;16.49;69.73;100727.92;110009;1273;22175;-76
2023/07/18 04:15:28;;;;;;;9.20;1.30;;;;;;;16.52;69.69;100728.05;109959;1272;22626;-77
2023/07/18 04:18:00;;;;;;;7.10;1.40;;;;;;;16.57;69.71;100735.61;109976;1274;23140;-76
2023/07/18 04:20:31;;;;;;;7.70;1.20;;;;;;;16.62;69.86;100736.54;109920;1271;22160;-78
2023/07/18 04:23:02;;;;;;;7.80;1.40;;;;;;;16.67;69.83;100739.12;109986;1277;22222;-79
2023/07/18 04:25:35;;;;;;;7.70;1.20;;;;;;;16.73;69.77;100743.80;109969;1280;22307;-79
2023/07/18 04:28:06;;;;;;;6.20;1.10;;;;;;;16.79;69.79;100744.42;110002;1280;22927;-80
2023/07/18 04:30:36;;;;;;;6.80;1.50;;;;;;;16.83;69.79;100747.14;109955;1273;22210;-80
2023/07/18 04:33:12;;;;;;;7.80;1.10;;;;;;;16.86;69.50;100749.04;109996;1269;22371;-79
2023/07/18 04:35:44;;;;;;;5.40;1.30;;;;;;;16.87;69.68;100745.71;109961;1280;22230;-79
2023/07/18 04:38:16;;;;;;;8.40;1.30;;;;;;;16.89;69.67;100745.20;109966;1280;22366;-79
2023/07/18 04:40:46;;;;;;;4.80;1.20;;;;;;;16.91;69.61;100749.09;110020;1260;22137;-79
2023/07/18 04:43:17;;;;;;;7.90;1.40;;;;;;;16.92;69.55;100749.41;109989;1276;23058;-79
2023/07/18 04:45:49;;;;;;;9.00;1.10;;;;;;;16.96;69.50;100750.50;109984;1280;22259;-79
2023/07/18 04:48:20;;;;;;;6.00;1.00;;;;;;;17.02;69.46;100758.96;109962;1280;22662;-79
2023/07/18 04:50:57;;;;;;;6.70;1.20;;;;;;;17.08;69.46;100764.96;109981;1280;22165;-79
2023/07/18 04:53:29;;;;;;;7.10;1.10;;;;;;;17.13;69.31;100764.52;109970;1274;22259;-79
2023/07/18 04:56:00;;;;;;;6.10;1.00;;;;;;;17.21;69.00;100765.29;109997;1280;22212;-79
2023/07/18 04:58:31;;;;;;;6.70;1.20;;;;;;;17.27;69.12;100765.60;109969;1279;22275;-79
2023/07/18 05:01:02;;;;;;;4.40;1.00;;;;;;;17.33;68.77;100765.59;109971;1278;22414;-79
2023/07/18 05:03:33;;;;;;;5.90;1.10;;;;;;;17.39;68.63;100767.79;110023;1279;22173;-79
2023/07/18 05:06:04;;;;;;;5.90;1.10;;;;;;;17.44;68.41;100768.00;109934;1276;22359;-79
2023/07/18 05:08:34;;;;;;;6.80;1.00;;;;;;;17.50;68.38;100770.98;109964;1280;22318;-79
2023/07/18 05:11:05;;;;;;;5.80;1.10;;;;;;;17.55;68.21;100779.67;109954;1280;22396;-79
2023/07/18 05:13:36;;;;;;;5.10;1.00;;;;;;;17.58;68.16;100782.04;109971;1280;22235;-79
2023/07/18 05:16:06;;;;;;;9.40;1.10;;;;;;;17.61;67.67;100787.83;110020;1280;22198;-79
2023/07/18 05:18:37;;;;;;;4.30;0.80;;;;;;;17.62;67.76;100779.52;109970;1274;22235;-79
2023/07/18 05:21:08;;;;;;;8.70;1.10;;;;;;;17.70;67.70;100786.02;109966;1277;23475;-79
2023/07/18 05:23:39;;;;;;;5.90;1.00;;;;;;;17.74;66.87;100791.11;109983;1280;22179;-79
2023/07/18 05:26:10;;;;;;;8.50;1.00;;;;;;;17.76;66.82;100794.13;109949;1280;22228;-79
2023/07/18 05:28:40;;;;;;;6.80;1.10;;;;;;;17.81;66.52;100796.44;109994;1280;22181;-79
2023/07/18 05:31:11;;;;;;;7.50;0.90;;;;;;;17.85;66.17;100796.16;109981;1277;22328;-80
2023/07/18 05:33:42;;;;;;;9.00;1.00;;;;;;;17.89;65.89;100803.05;109959;1276;23080;-79
2023/07/18 05:36:15;;;;;;;6.40;1.20;;;;;;;17.92;65.92;100809.36;109954;1274;22205;-79
2023/07/18 05:38:46;;;;;;;8.80;0.90;;;;;;;17.95;65.66;100804.31;109942;1280;23040;-79
2023/07/18 05:41:17;;;;;;;4.60;1.00;;;;;;;17.99;65.28;100808.84;109992;1273;22274;-79
2023/07/18 05:43:48;;;;;;;4.70;0.90;;;;;;;18.00;64.81;100811.49;110005;1280;22149;-79
2023/07/18 05:46:19;;;;;;;7.10;1.10;;;;;;;17.99;64.73;100807.29;110000;1277;22209;-79
2023/07/18 05:48:50;;;;;;;4.10;0.70;;;;;;;18.00;64.73;100806.35;109968;1276;22295;-79
2023/07/18 05:51:21;;;;;;;6.30;1.10;;;;;;;18.05;64.84;100808.88;109989;1276;22976;-79
2023/07/18 05:53:52;;;;;;;7.40;1.20;;;;;;;18.09;64.84;100797.09;110033;1277;22190;-79
2023/07/18 05:56:23;;;;;;;6.40;1.10;;;;;;;18.17;64.90;100801.73;110019;1273;22663;-79
2023/07/18 05:58:53;;;;;;;8.00;1.00;;;;;;;18.26;64.55;100806.14;110004;1280;22218;-79
2023/07/18 06:01:24;;;;;;;4.90;1.00;;;;;;;18.31;64.39;100804.00;110015;1273;22162;-79
2023/07/18 06:03:56;;;;;;;4.70;1.00;;;;;;;18.38;64.25;100807.93;110053;1277;22167;-79
2023/07/18 06:06:26;;;;;;;5.80;0.90;;;;;;;18.45;63.89;100813.95;110001;1274;22238;-79
2023/07/18 06:08:57;;;;;;;6.00;1.00;;;;;;;18.47;63.29;100820.38;109967;1273;22450;-79
2023/07/18 06:11:28;;;;;;;5.90;0.90;;;;;;;18.48;63.56;100818.58;109961;1280;22280;-79
2023/07/18 06:13:59;;;;;;;9.00;1.10;;;;;;;18.54;63.41;100823.95;109993;1280;22222;-79
2023/07/18 06:16:30;;;;;;;3.00;0.80;;;;;;;18.59;62.97;100824.28;110016;1277;22277;-80
2023/07/18 06:19:01;;;;;;;4.80;0.80;;;;;;;18.61;62.69;100820.42;109984;1273;22935;-79
2023/07/18 06:21:31;;;;;;;8.00;1.00;;;;;;;18.64;62.52;100822.06;109967;1273;22199;-79
2023/07/18 06:24:02;;;;;;;7.00;0.90;;;;;;;18.68;62.43;100819.82;109976;1276;22396;-79
2023/07/18 06:26:33;;;;;;;3.90;0.90;;;;;;;18.72;62.27;100822.32;110010;1279;22673;-80
2023/07/18 06:29:04;;;;;;;5.00;1.00;;;;;;;18.76;62.23;100819.11;110014;1269;22203;-79
2023/07/18 06:31:35;;;;;;;3.90;0.70;;;;;;;18.83;62.33;100823.98;109980;1280;22205;-79
2023/07/18 06:34:06;;;;;;;4.70;0.90;;;;;;;18.91;61.70;100828.75;109984;1277;22340;-79
2023/07/18 06:36:36;;;;;;;6.10;1.00;;;;;;;18.95;61.46;100829.39;109981;1280;22211;-79
2023/07/18 06:39:07;;;;;;;7.40;1.00;;;;;;;19.00;61.20;100827.05;109935;1277;22128;-80
2023/07/18 06:41:38;;;;;;;4.00;0.80;;;;;;;19.05;60.47;100824.25;109957;1276;22405;-79
2023/07/18 06:44:11;;;;;;;5.30;0.80;;;;;;;19.08;60.26;100829.58;110000;1273;22522;-79
2023/07/18 06:46:42;;;;;;;7.90;0.90;;;;;;;19.09;59.95;100823.86;110010;1273;22129;-79
2023/07/18 06:49:15;;;;;;;5.00;1.00;;;;;;;19.13;60.18;100823.98;109950;1280;22415;-79
2023/07/18 06:51:45;;;;;;;9.30;1.00;;;;;;;19.23;60.10;100821.60;109966;1274;22145;-79
2023/07/18 06:54:16;;;;;;;8.40;1.00;;;;;;;19.31;59.75;100819.39;110001;1273;22153;-80
2023/07/18 06:56:47;;;;;;;7.80;1.40;;;;;;;19.40;59.16;100817.81;110004;1280;24243;-80
2023/07/18 06:59:19;;;;;;;6.70;1.00;;;;;;;19.42;58.67;100819.79;109924;1273;22335;-80
2023/07/18 07:01:49;;;;;;;5.40;0.90;;;;;;;19.43;58.61;100819.73;110000;1280;22158;-79
2023/07/18 07:04:20;;;;;;;5.20;0.90;;;;;;;19.43;58.54;100818.29;109996;1273;22167;-79
2023/07/18 07:06:51;;;;;;;6.00;0.80;;;;;;;19.47;58.65;100822.58;109985;1280;22174;-79
2023/07/18 07:09:21;;;;;;;6.70;1.00;;;;;;;19.54;58.42;100822.54;109953;1274;22192;-79
2023/07/18 07:11:52;;;;;;;4.40;0.70;;;;;;;19.61;57.84;100826.59;110004;1279;22966;-79
2023/07/18 07:14:23;;;;;;;6.00;1.00;;;;;;;19.64;57.38;100830.23;109985;1272;23042;-80
2023/07/18 07:16:54;;;;;;;5.50;0.80;;;;;;;19.64;57.19;100827.80;109986;1280;22215;-79
2023/07/18 07:19:25;;;;;;;4.50;0.70;;;;;;;19.66;57.40;100828.80;109989;1274;22644;-79
2023/07/18 07:21:55;;;;;;;4.50;0.80;;;;;;;19.74;56.86;100824.94;109964;1279;22206;-79
2023/07/18 07:24:26;;;;;;;5.00;0.90;;;;;;;19.79;56.39;100827.36;109991;1274;22191;-79
2023/07/18 07:26:58;;;;;;;6.00;1.10;;;;;;;19.83;56.29;100820.88;109992;1274;22262;-79
2023/07/18 07:29:30;;;;;;;4.10;0.90;;;;;;;19.85;56.06;100819.84;109971;1270;22168;-80
2023/07/18 07:32:00;;;;;;;4.30;0.90;;;;;;;19.91;56.17;100817.14;109978;1280;22172;-80
2023/07/18 07:34:32;;;;;;;4.80;0.70;;;;;;;20.03;55.73;100814.34;109961;1280;22230;-80
2023/07/18 07:37:02;;;;;;;4.10;0.80;;;;;;;20.14;55.40;100814.69;110011;1274;22466;-80
2023/07/18 07:39:33;;;;;;;3.70;0.50;;;;;;;20.23;54.89;100820.03;109997;1276;22224;-80
2023/07/18 07:42:04;;;;;;;4.60;0.80;;;;;;;20.25;54.25;100819.29;110025;1279;22926;-80
2023/07/18 07:44:35;;;;;;;5.00;0.70;;;;;;;20.25;53.71;100819.34;109972;1273;22697;-79
2023/07/18 07:47:06;;;;;;;6.20;0.60;;;;;;;20.26;53.86;100817.63;109969;1273;22924;-79
2023/07/18 07:49:37;;;;;;;5.40;0.70;;;;;;;20.29;53.85;100814.55;110002;1267;23037;-79
2023/07/18 07:52:09;;;;;;;2.40;0.50;;;;;;;20.33;53.27;100810.69;109978;1273;23355;-80
2023/07/18 07:54:40;;;;;;;3.50;0.60;;;;;;;20.43;52.56;100813.20;109972;1273;22280;-79
2023/07/18 07:57:11;;;;;;;3.10;0.60;;;;;;;20.50;52.55;100812.65;109997;1280;22875;-80
2023/07/18 07:59:42;;;;;;;6.40;1.10;;;;;;;20.56;52.38;100809.73;110002;1273;22281;-80
2023/07/18 08:02:14;;;;;;;8.90;0.60;;;;;;;20.62;51.63;100814.91;110003;1276;22405;-79
2023/07/18 08:04:45;;;;;;;4.50;0.60;;;;;;;20.65;51.32;100812.28;109991;1280;23022;-79
2023/07/18 08:07:16;;;;;;;3.80;0.70;;;;;;;20.72;51.67;100810.71;110000;1277;22174;-80
2023/07/18 08:09:47;;;;;;;4.30;0.60;;;;;;;20.80;51.90;100809.98;109952;1270;22144;-79
2023/07/18 08:12:20;;;;;;;6.50;0.80;;;;;;;20.86;51.80;100809.17;110001;1273;23659;-79
2023/07/18 08:14:51;;;;;;;7.10;0.80;;;;;;;20.96;51.52;100807.69;109974;1273;22165;-79
2023/07/18 08:17:22;;;;;;;6.40;0.70;;;;;;;21.09;51.38;100809.33;109977;1273;22675;-80
2023/07/18 08:19:53;;;;;;;5.40;0.50;;;;;;;21.17;50.94;100806.38;109987;1280;22200;-80
2023/07/18 08:22:24;;;;;;;4.30;0.90;;;;;;;21.24;50.98;100801.21;110019;1276;22149;-79
2023/07/18 08:24:54;;;;;;;5.40;0.70;;;;;;;21.29;50.53;100800.55;109994;1273;22324;-79
2023/07/18 08:27:25;;;;;;;5.20;0.80;;;;;;;21.33;50.28;100802.40;109955;1280;22221;-79
2023/07/18 08:29:56;;;;;;;3.60;0.60;;;;;;;21.37;50.39;100796.83;109990;1276;22155;-79
2023/07/18 08:32:27;;;;;;;3.50;0.50;;;;;;;21.36;49.94;100794.05;110003;1273;22178;-80
2023/07/18 08:34:58;;;;;;;2.30;0.50;;;;;;;21.39;49.71;100793.99;110028;1280;22182;-79
2023/07/18 08:37:29;;;;;;;5.00;0.60;;;;;;;21.40;48.71;100789.75;109980;1276;22793;-79
2023/07/18 08:39:59;;;;;;;5.30;0.60;;;;;;;21.38;48.66;100790.30;109989;1280;22142;-79
2023/07/18 08:42:31;;;;;;;2.30;0.50;;;;;;;21.39;48.64;100786.26;110015;1276;22159;-79
2023/07/18 08:45:03;;;;;;;4.30;0.50;;;;;;;21.36;48.46;100779.33;109993;1272;22406;-79
2023/07/18 08:47:35;;;;;;;4.70;0.80;;;;;;;21.36;48.38;100776.14;109979;1273;22189;-79
2023/07/18 08:50:10;;;;;;;5.40;0.80;;;;;;;21.40;48.40;100775.86;109997;1265;22327;-79
2023/07/18 08:52:41;;;;;;;3.50;0.70;;;;;;;21.49;48.66;100774.39;110001;1280;22799;-80
2023/07/18 08:55:12;;;;;;;7.50;0.80;;;;;;;21.58;48.58;100772.34;109990;1276;22201;-80
2023/07/18 08:57:43;;;;;;;4.60;0.90;;;;;;;21.66;48.00;100772.66;109994;1277;22179;-80
2023/07/18 09:00:20;;;;;;;4.80;0.70;;;;;;;21.74;48.04;100774.58;109981;1274;22315;-80
2023/07/18 09:02:50;;;;;;;5.70;0.60;;;;;;;21.81;47.65;100775.14;110013;1272;22161;-79
2023/07/18 09:05:32;;;;;;;4.80;0.80;;;;;;;21.81;47.39;100766.83;109947;1273;22171;-80
2023/07/18 09:08:04;;;;;;;5.50;0.60;;;;;;;21.79;47.09;100769.07;110006;1273;22323;-80
2023/07/18 09:10:35;;;;;;;3.90;0.60;;;;;;;21.78;47.21;100766.61;110001;1274;22258;-79
2023/07/18 09:13:07;;;;;;;1.20;0.30;;;;;;;21.85;47.11;100760.46;109980;1274;22318;-79
2023/07/18 09:15:39;;;;;;;3.30;0.60;;;;;;;21.95;46.80;100760.23;109996;1277;22159;-80
2023/07/18 09:18:12;;;;;;;3.80;0.60;;;;;;;22.03;46.66;100756.44;110007;1274;22173;-79
2023/07/18 09:20:44;;;;;;;5.90;0.60;;;;;;;22.12;46.24;100753.84;109996;1276;22851;-80
2023/07/18 09:23:16;;;;;;;4.40;0.70;;;;;;;22.17;45.93;100745.77;109997;1273;23068;-79
2023/07/18 09:25:47;;;;;;;2.90;0.40;;;;;;;22.22;45.71;100748.62;109968;1280;22154;-80
2023/07/18 09:28:18;;;;;;;3.70;0.60;;;;;;;22.28;45.88;100742.11;109959;1273;22160;-80
2023/07/18 09:30:49;;;;;;;4.70;1.10;;;;;;;22.31;45.21;100745.52;110030;1273;22751;-79
2023/07/18 09:33:26;;;;;;;4.30;0.60;;;;;;;22.30;45.18;100738.52;110008;1273;22179;-79
2023/07/18 09:35:59;;;;;;;3.00;0.40;;;;;;;22.30;44.63;100738.62;109992;1276;22186;-79
2023/07/18 09:38:30;;;;;;;1.70;0.40;;;;;;;22.30;44.17;100738.51;109977;1273;22396;-80
2023/07/18 09:41:02;;;;;;;5.00;0.60;;;;;;;22.35;43.62;100735.19;109991;1276;23307;-79
2023/07/18 09:43:34;;;;;;;5.20;0.60;;;;;;;22.38;42.56;100738.04;109992;1280;22862;-79
2023/07/18 09:46:11;;;;;;;5.90;1.60;;;;;;;22.34;42.76;100728.92;109986;1274;22303;-80
2023/07/18 09:48:43;;;;;;;3.80;0.50;;;;;;;22.37;43.19;100729.23;109974;1276;22869;-79
2023/07/18 09:51:19;;;;;;;4.60;0.50;;;;;;;22.38;42.80;100725.05;110018;1276;22184;-79
2023/07/18 09:53:52;;;;;;;3.70;0.50;;;;;;;22.38;42.67;100723.25;109997;1274;22840;-79
2023/07/18 09:56:25;;;;;;;4.80;0.60;;;;;;;22.43;42.70;100721.48;110003;1273;22429;-80
2023/07/18 09:58:57;;;;;;;3.30;0.60;;;;;;;22.53;42.87;100718.15;110013;1280;22160;-80
2023/07/18 10:01:29;;;;;;;6.60;0.70;;;;;;;22.61;42.57;100712.20;110030;1280;22157;-79
2023/07/18 10:04:00;;;;;;;2.80;0.40;;;;;;;22.64;42.12;100707.39;109978;1272;22362;-79
2023/07/18 10:06:32;;;;;;;6.90;0.50;;;;;;;22.65;42.26;100708.09;110007;1276;22975;-80
2023/07/18 10:09:04;;;;;;;8.00;1.30;;;;;;;22.74;42.09;100710.83;109950;1276;22334;-79
2023/07/18 10:12:08;;;;;;;2.20;0.50;;;;;;;22.82;41.98;100708.30;109984;1276;22153;-80
2023/07/18 10:14:56;;;;;;;2.50;0.50;;;;;;;22.94;41.90;100704.33;109986;1280;22154;-79
2023/07/18 10:17:38;;;;;;;5.10;0.60;;;;;;;23.07;41.69;100706.46;109990;1274;22164;-79
2023/07/18 10:20:23;;;;;;;3.90;0.60;;;;;;;23.14;41.80;100701.55;109977;1280;22206;-79
2023/07/18 10:23:00;;;;;;;2.10;0.40;;;;;;;23.21;41.41;100702.02;110005;1280;22963;-80
2023/07/18 10:25:31;;;;;;;3.00;0.30;;;;;;;23.21;41.06;100697.83;110014;1280;22202;-80
2023/07/18 10:28:03;;;;;;;3.40;0.50;;;;;;;23.21;40.87;100690.98;109985;1280;22126;-80
2023/07/18 10:30:41;;;;;;;5.40;0.60;;;;;;;23.21;41.11;100683.88;109981;1274;22817;-80
2023/07/18 10:33:12;;;;;;;5.50;0.80;;;;;;;23.30;41.13;100678.67;109980;1273;22237;-79
2023/07/18 10:35:43;;;;;;;4.00;0.60;;;;;;;23.41;41.03;100676.66;109974;1274;22776;-79
2023/07/18 10:38:16;;;;;;;2.10;0.40;;;;;;;23.42;40.59;100677.92;109985;1273;22308;-80
2023/07/18 10:40:48;;;;;;;7.40;0.80;;;;;;;23.46;40.94;100669.45;109993;1277;22315;-79
2023/07/18 10:43:20;;;;;;;2.60;0.50;;;;;;;23.55;40.64;100669.66;109983;1272;23039;-80
2023/07/18 10:45:52;;;;;;;5.90;0.70;;;;;;;23.54;40.38;100664.89;109997;1274;22188;-80
2023/07/18 10:48:23;;;;;;;3.80;0.60;;;;;;;23.57;40.62;100660.48;110007;1280;22153;-79
2023/07/18 10:50:54;;;;;;;3.20;0.50;;;;;;;23.69;40.34;100654.73;109989;1273;22268;-80
2023/07/18 10:53:24;;;;;;;5.90;0.70;;;;;;;23.76;40.30;100652.31;109957;1273;22179;-79
2023/07/18 10:55:56;;;;;;;3.90;0.60;;;;;;;23.87;40.15;100655.67;110031;1280;22157;-80
2023/07/18 10:58:27;;;;;;;6.10;0.70;;;;;;;23.88;39.81;100654.35;110002;1273;22165;-80
2023/07/18 11:00:57;;;;;;;3.10;0.70;;;;;;;23.93;39.85;100652.55;109982;1273;22261;-79
2023/07/18 11:03:34;;;;;;;4.80;0.90;;;;;;;23.99;39.76;100652.39;109988;1280;22166;-79
2023/07/18 11:06:07;;;;;;;6.40;0.70;;;;;;;24.07;40.05;100643.02;110010;1272;22370;-80
2023/07/18 11:08:38;;;;;;;5.00;0.60;;;;;;;24.15;39.38;100634.51;109982;1273;22199;-80
2023/07/18 11:11:09;;;;;;;4.30;1.00;;;;;;;24.18;39.67;100630.05;109986;1273;22457;-79
2023/07/18 11:13:48;;;;;;;5.00;0.70;;;;;;;24.28;39.67;100627.10;110003;1280;22194;-80
2023/07/18 11:16:19;;;;;;;3.30;0.60;;;;;;;24.37;39.28;100621.48;105892;1276;5371931;-80
2023/07/18 11:18:50;;;;;;;4.00;0.60;;;;;;;24.39;38.57;100617.92;109988;1273;22203;-80
2023/07/18 11:21:22;;;;;;;4.10;0.70;;;;;;;24.39;38.13;100616.89;109994;1274;22207;-79
2023/07/18 11:23:53;;;;;;;6.90;0.70;;;;;;;24.39;37.87;100613.58;110002;1273;22323;-79
2023/07/18 11:26:23;;;;;;;4.30;0.50;;;;;;;24.49;38.37;100611.63;109975;1273;22207;-80
2023/07/18 11:28:56;;;;;;;3.00;0.40;;;;;;;24.54;37.46;100611.06;110020;1280;22617;-79
2023/07/18 11:31:28;;;;;;;2.00;0.60;;;;;;;24.52;37.54;100605.58;110008;1273;22199;-80
2023/07/18 11:34:01;;;;;;;6.70;0.60;;;;;;;24.54;36.93;100600.06;110011;1274;22198;-79
2023/07/18 11:36:33;;;;;;;2.00;0.50;;;;;;;24.49;36.77;100592.45;109984;1280;22216;-80